首页
METAR-TAF:

METAR-TAF

机场 :

讷瓦布沙阿, 巴基斯坦

纬度: 26-15N, 经度: 068-22E, 海拔: 37米

METAR: 丢失

时间: 04:23 (23:23 UTC)

预报

该预报发布于6小时和23分钟前的17:00 UTC
预报有效从22日的 18点(UTC)到 23日的 24点(UTC)
风速10节,风向
能見度: 5000
少量云层高于3000英尺
散云层高于10000英尺
从 23日的 0400点(UTC)
风速10节,风向南转西南,有时为20节阵风
能見度: 5000
少量云层高于3000英尺
散云层高于10000英尺
短暂存在
从 23日的 12点(UTC)到 23日的 16点(UTC)
风速17节,风向北转东北,有时为35节阵风
能見度: 1000
少量云层高于2500英尺, 积雨云.
散云层高于3000英尺
阴天层高于9000英尺
成为
从 23日的 16点(UTC)到 23日的 18点(UTC)
风速10节,风向
能見度: 6000
少量云层高于3000英尺
散云层高于10000英尺

TAF: OPNH 221700Z 2218/2324 18010KT 5000 HZ FEW030 SCT100 FM230400 21010G20KT 5000 HZ FEW030 SCT100 TEMPO 2312/2316 03017G35KT 1000 DS/TSRA FEW025CB SCT030 OVC090 BECMG 2316/2318 18010KT 6000 FEW030 SCT100

超过4000个机场的气象观测和天气预报(METAR&TAF报告)。

可查询的气象台以黄色和红色小点在地图上表示。

将鼠标移到小点上方,可查看气象台名称。

然后点击查看天气观测和预报。

如需切换地图:点击带黑十字的绿色按钮放大地图;点击带横线的绿色按钮缩小地图;或者点击绿色箭头查看邻近地区的地图。


METAR-TAF: